Time;durP1;ratioP1;P1;durP2;ratioP2;P2;SDS_P1;SDS_P2;PMS_P1;PMS_P2;Temp;Humidity;BMP_temperature;BMP_pressure;BME280_temperature;BME280_humidity;BME280_pressure;Samples;Min_cycle;Max_cycle;Signal;HPM_P1;HPM_P2
2023/01/21 00:01:54;;;;;;;6.88;5.00;;;;;;;13.84;88.16;101150.13;12606512;23;96822;-80
2023/01/21 00:06:57;;;;;;;5.72;4.10;;;;;;;13.90;87.87;101144.59;12606416;23;97363;-80
2023/01/21 00:12:02;;;;;;;5.40;4.03;;;;;;;13.96;87.22;101150.50;12605512;23;96938;-81
2023/01/21 00:17:07;;;;;;;;;;;;;;;13.92;86.67;101151.53;12607844;23;96932;-80
2023/01/21 00:22:10;;;;;;;5.90;4.20;;;;;;;14.04;86.42;101155.56;12608962;23;96694;-81
2023/01/21 00:27:13;;;;;;;5.05;4.05;;;;;;;14.05;86.54;101160.78;12609765;23;96559;-81
2023/01/21 00:32:18;;;;;;;5.50;4.38;;;;;;;14.07;86.40;101160.72;12650391;23;96964;-81
2023/01/21 00:37:22;;;;;;;7.03;4.75;;;;;;;14.05;86.41;101154.63;12670730;23;96677;-80
2023/01/21 00:42:26;;;;;;;6.10;3.97;;;;;;;14.05;86.92;101149.31;12668938;23;96825;-81
2023/01/21 00:47:31;;;;;;;5.68;4.50;;;;;;;14.01;86.67;101143.25;12670155;23;96671;-81
2023/01/21 00:52:34;;;;;;;4.55;4.00;;;;;;;14.02;86.81;101139.69;12670329;23;96539;-80
2023/01/21 00:57:37;;;;;;;4.70;3.63;;;;;;;14.03;86.82;101138.81;12670029;23;96692;-81
2023/01/21 01:02:42;;;;;;;4.53;3.70;;;;;;;14.01;86.71;101139.72;12670318;23;96615;-81
2023/01/21 01:07:46;;;;;;;5.35;4.03;;;;;;;14.04;86.26;101139.66;12670270;23;96666;-81
2023/01/21 01:12:49;;;;;;;3.85;3.13;;;;;;;14.08;86.17;101141.25;12670649;23;96670;-81
2023/01/21 01:17:54;;;;;;;4.13;3.13;;;;;;;14.09;85.85;101135.06;12671076;23;96765;-81
2023/01/21 01:22:58;;;;;;;5.13;3.20;;;;;;;14.07;85.67;101127.19;12670487;23;97297;-81
2023/01/21 01:28:01;;;;;;;3.78;2.95;;;;;;;14.07;85.83;101121.88;12669792;23;96679;-80
2023/01/21 01:33:06;;;;;;;3.97;3.13;;;;;;;14.00;86.19;101119.50;12668770;23;97148;-81
2023/01/21 01:38:09;;;;;;;4.82;3.05;;;;;;;13.97;85.92;101114.34;12669965;23;96694;-81
2023/01/21 01:43:16;;;;;;;5.63;2.88;;;;;;;13.92;86.02;101113.66;12669512;23;96969;-81
2023/01/21 01:48:26;;;;;;;4.30;3.42;;;;;;;13.93;85.64;101115.38;12669822;23;96647;-81
2023/01/21 01:53:32;;;;;;;4.88;3.28;;;;;;;13.92;85.80;101124.25;12669774;23;96710;-81
2023/01/21 01:58:35;;;;;;;4.32;3.38;;;;;;;13.95;86.05;101127.59;12669867;23;96568;-81
2023/01/21 02:03:44;;;;;;;3.95;3.03;;;;;;;13.98;85.82;101129.28;12669750;23;96648;-80
2023/01/21 02:08:48;;;;;;;3.78;2.78;;;;;;;13.95;86.06;101116.19;12669967;23;96819;-80
2023/01/21 02:13:53;;;;;;;5.28;2.67;;;;;;;13.90;86.11;101118.16;12669865;23;96621;-80
2023/01/21 02:19:08;;;;;;;5.15;3.00;;;;;;;13.80;86.27;101122.91;12669718;23;96584;-80
2023/01/21 02:25:00;;;;;;;4.50;2.83;;;;;;;13.83;86.50;101125.44;12668565;23;96687;-80
2023/01/21 02:30:39;;;;;;;3.97;2.83;;;;;;;13.86;86.00;101135.06;12668758;23;96828;-80
2023/01/21 02:35:51;;;;;;;3.80;2.63;;;;;;;13.91;86.32;101141.03;12669602;23;96690;-81
2023/01/21 02:41:03;;;;;;;4.18;2.42;;;;;;;13.92;86.10;101145.41;12668773;23;96702;-80
2023/01/21 02:46:14;;;;;;;4.53;2.55;;;;;;;13.93;86.20;101133.91;12669325;23;96546;-80
2023/01/21 02:51:20;;;;;;;4.82;2.63;;;;;;;13.93;85.77;101140.06;12669159;23;96567;-81
2023/01/21 02:56:25;;;;;;;4.20;3.15;;;;;;;13.85;86.18;101136.00;12669340;23;97456;-80
2023/01/21 03:01:41;;;;;;;5.28;2.83;;;;;;;13.83;86.18;101133.38;12669941;23;96633;-80
2023/01/21 03:06:59;;;;;;;4.32;2.40;;;;;;;13.88;85.45;101138.50;12669318;23;96758;-80
2023/01/21 03:12:20;;;;;;;3.95;2.53;;;;;;;13.93;85.37;101134.75;12668531;23;97781;-81
2023/01/21 03:17:35;;;;;;;3.85;2.40;;;;;;;13.95;85.22;101132.06;12667577;23;96614;-81
2023/01/21 03:22:40;;;;;;;5.20;2.47;;;;;;;13.95;85.41;101135.53;12668878;23;97442;-80
2023/01/21 03:27:46;;;;;;;5.65;2.33;;;;;;;13.97;85.41;101130.22;12669135;23;97262;-80
2023/01/21 03:32:51;;;;;;;4.93;2.22;;;;;;;13.94;85.25;101128.53;12668216;23;96709;-81
2023/01/21 03:38:03;;;;;;;4.80;2.30;;;;;;;13.88;85.35;101123.50;12668435;23;97173;-80
2023/01/21 03:43:07;;;;;;;3.67;2.28;;;;;;;13.84;85.55;101119.25;12668140;23;96859;-81
2023/01/21 03:48:17;;;;;;;3.42;1.98;;;;;;;13.82;85.29;101113.16;12668233;23;96623;-81
2023/01/21 03:53:22;;;;;;;5.30;2.30;;;;;;;13.83;85.24;101114.84;12669597;23;96551;-80
2023/01/21 03:58:25;;;;;;;5.28;2.17;;;;;;;13.87;85.05;101112.94;12670861;23;96601;-81
2023/01/21 04:03:28;;;;;;;6.55;2.28;;;;;;;13.90;85.09;101103.13;12670994;23;96577;-80
2023/01/21 04:08:33;;;;;;;5.22;2.38;;;;;;;13.81;85.43;101087.63;12669188;23;96909;-81
2023/01/21 04:13:36;;;;;;;3.13;1.80;;;;;;;13.77;85.29;101087.78;12671039;23;96693;-80
2023/01/21 04:18:39;;;;;;;3.28;2.20;;;;;;;13.74;85.19;101091.44;12670225;23;96559;-80
2023/01/21 04:23:44;;;;;;;2.55;1.75;;;;;;;13.74;84.69;101093.22;12670825;23;96621;-81
2023/01/21 04:28:47;;;;;;;2.78;1.80;;;;;;;13.62;85.01;101092.75;12670531;23;96580;-81
2023/01/21 04:33:50;;;;;;;4.10;2.15;;;;;;;13.57;85.33;101088.59;12610301;23;96858;-80
2023/01/21 04:38:55;;;;;;;4.60;2.17;;;;;;;13.47;85.90;101098.63;12608901;23;97223;-80
2023/01/21 04:43:58;;;;;;;6.72;2.35;;;;;;;13.39;86.12;101087.50;12609765;23;96609;-80
2023/01/21 04:49:01;;;;;;;4.60;1.90;;;;;;;13.35;86.29;101085.88;12608842;23;96631;-80
2023/01/21 04:54:06;;;;;;;6.25;2.30;;;;;;;13.33;86.15;101082.44;12608967;23;97140;-80
2023/01/21 04:59:10;;;;;;;4.57;1.85;;;;;;;13.34;86.17;101085.94;12607556;23;96621;-81
2023/01/21 05:04:13;;;;;;;2.30;1.33;;;;;;;13.44;85.67;101089.97;12608392;23;96681;-80
2023/01/21 05:09:18;;;;;;;5.30;1.65;;;;;;;13.52;85.15;101094.03;12608154;23;96572;-81
2023/01/21 05:14:21;;;;;;;2.25;1.15;;;;;;;13.56;84.63;101089.50;12609021;23;96834;-81
2023/01/21 05:19:24;;;;;;;2.75;1.17;;;;;;;13.55;84.87;101087.78;12608596;23;96890;-81
2023/01/21 05:24:29;;;;;;;3.13;1.35;;;;;;;13.47;84.99;101093.34;12608623;23;96882;-81
2023/01/21 05:29:32;;;;;;;2.75;1.20;;;;;;;13.46;84.84;101096.94;12607817;23;96620;-81
2023/01/21 05:34:35;;;;;;;2.45;1.27;;;;;;;13.52;85.03;101093.16;12609351;23;96653;-80
2023/01/21 05:39:39;;;;;;;2.25;1.10;;;;;;;13.46;84.85;101096.06;12608393;23;96544;-80
2023/01/21 05:44:43;;;;;;;3.55;1.20;;;;;;;13.27;85.32;101098.53;12607979;23;97092;-81
2023/01/21 05:49:46;;;;;;;1.50;1.02;;;;;;;13.26;85.30;101099.44;12606349;23;96611;-81
2023/01/21 05:54:50;;;;;;;1.70;1.05;;;;;;;13.24;85.36;101106.56;12608290;23;96570;-81
2023/01/21 06:00:05;;;;;;;2.17;1.27;;;;;;;13.22;85.25;101104.91;12608296;23;97158;-81
2023/01/21 06:05:08;;;;;;;1.77;1.25;;;;;;;13.16;85.12;101103.34;12607284;23;97110;-81
2023/01/21 06:10:13;;;;;;;2.47;1.20;;;;;;;13.14;85.24;101097.25;12607640;23;96547;-81
2023/01/21 06:15:16;;;;;;;;;;;;;;;13.02;85.23;101089.78;12608183;23;96629;-81
2023/01/21 06:20:19;;;;;;;3.00;1.20;;;;;;;13.08;85.15;101092.19;12608508;23;96565;-81
2023/01/21 06:25:25;;;;;;;2.13;0.98;;;;;;;13.03;85.14;101098.56;12609037;23;96541;-81
2023/01/21 06:30:28;;;;;;;2.67;1.20;;;;;;;12.80;85.29;101109.06;12607520;23;96792;-81
2023/01/21 06:35:31;;;;;;;4.38;1.30;;;;;;;12.78;85.44;101116.19;12608042;23;96541;-81
2023/01/21 06:40:36;;;;;;;2.17;1.10;;;;;;;12.81;85.47;101109.03;12605795;23;96727;-81
2023/01/21 06:45:39;;;;;;;1.40;1.00;;;;;;;12.86;85.51;101127.38;12608155;23;97025;-81
2023/01/21 06:50:42;;;;;;;2.03;1.10;;;;;;;12.90;85.59;101128.97;12607806;23;96566;-81
2023/01/21 06:55:47;;;;;;;4.40;1.08;;;;;;;13.02;85.67;101129.41;12607922;23;96648;-81
2023/01/21 07:00:50;;;;;;;1.77;1.10;;;;;;;13.09;85.50;101130.03;12607524;23;96520;-81
2023/01/21 07:05:53;;;;;;;2.03;1.10;;;;;;;13.21;85.11;101137.50;12607683;23;96745;-81
2023/01/21 07:10:58;;;;;;;1.88;1.00;;;;;;;13.35;84.79;101136.09;12606774;23;96683;-81
2023/01/21 07:16:01;;;;;;;1.85;1.30;;;;;;;13.40;84.73;101135.94;12608037;23;96561;-81
2023/01/21 07:21:08;;;;;;;1.90;1.08;;;;;;;13.38;84.99;101127.22;12607508;23;96669;-81
2023/01/21 07:26:14;;;;;;;2.38;1.05;;;;;;;13.28;85.56;101131.97;12609617;23;96647;-81
2023/01/21 07:31:17;;;;;;;3.00;1.10;;;;;;;13.31;85.33;101131.84;12612363;23;96660;-81
2023/01/21 07:36:20;;;;;;;1.67;1.05;;;;;;;13.32;85.51;101136.22;12614088;23;97332;-81
2023/01/21 07:41:25;;;;;;;1.65;0.93;;;;;;;13.40;85.08;101131.50;12613774;23;96822;-81
2023/01/21 07:46:28;;;;;;;1.50;0.75;;;;;;;13.46;84.70;101139.22;12613833;23;96722;-81
2023/01/21 07:51:31;;;;;;;1.15;0.70;;;;;;;13.50;84.74;101132.88;12613210;23;96547;-81
2023/01/21 07:56:36;;;;;;;2.97;0.98;;;;;;;13.49;84.75;101136.47;12613506;23;97236;-81
2023/01/21 08:01:39;;;;;;;3.15;0.98;;;;;;;13.48;84.93;101150.59;12613267;23;96651;-81
2023/01/21 08:06:42;;;;;;;1.23;0.80;;;;;;;13.49;85.10;101154.09;12614182;23;96567;-81
2023/01/21 08:11:47;;;;;;;2.40;1.20;;;;;;;13.40;85.16;101157.94;12612393;23;96781;-81
2023/01/21 08:16:50;;;;;;;1.73;0.95;;;;;;;13.40;85.26;101165.88;12612274;23;96689;-81
2023/01/21 08:21:53;;;;;;;2.13;1.27;;;;;;;13.42;85.20;101166.69;12611863;23;96491;-81
2023/01/21 08:26:59;;;;;;;2.50;0.93;;;;;;;13.50;84.50;101182.28;12612824;23;96674;-81
2023/01/21 08:32:02;;;;;;;2.75;1.05;;;;;;;13.49;84.89;101177.91;12651240;23;96481;-81
2023/01/21 08:37:05;;;;;;;2.20;0.95;;;;;;;13.54;84.77;101182.09;12673469;23;97145;-81
2023/01/21 08:42:10;;;;;;;2.47;0.90;;;;;;;13.51;84.99;101184.00;12670385;23;96625;-81
2023/01/21 08:47:13;;;;;;;1.92;1.08;;;;;;;13.46;84.94;101186.81;12671205;23;96591;-81
2023/01/21 08:52:16;;;;;;;2.42;1.10;;;;;;;13.48;84.99;101186.75;12670243;23;96719;-81
2023/01/21 08:57:21;;;;;;;1.73;1.10;;;;;;;13.58;84.48;101196.94;12671269;23;96708;-81
2023/01/21 09:02:24;;;;;;;5.25;1.20;;;;;;;13.57;84.84;101204.94;12670838;23;98098;-81
2023/01/21 09:07:28;;;;;;;2.35;1.10;;;;;;;13.65;84.71;101205.50;12670564;23;96679;-81
2023/01/21 09:12:32;;;;;;;2.67;1.63;;;;;;;13.45;85.37;101200.94;12668514;23;96554;-81
2023/01/21 09:17:37;;;;;;;;;;;;;;;13.40;85.42;101213.47;12670522;23;97178;-81
2023/01/21 09:22:40;;;;;;;2.60;1.25;;;;;;;13.47;85.49;101216.75;12670581;23;96958;-81
2023/01/21 09:27:45;;;;;;;5.32;1.80;;;;;;;13.55;85.12;101215.53;12669515;23;96699;-81
2023/01/21 09:32:48;;;;;;;2.03;1.27;;;;;;;13.67;84.96;101228.31;12669652;23;96788;-81
2023/01/21 09:37:51;;;;;;;2.35;1.35;;;;;;;13.71;84.86;101230.88;12670635;23;96957;-81
2023/01/21 09:42:56;;;;;;;2.05;1.10;;;;;;;13.63;85.02;101226.72;12669918;23;96585;-81
2023/01/21 09:48:01;;;;;;;3.83;1.30;;;;;;;13.78;84.77;101242.97;12670335;23;96680;-81
2023/01/21 09:53:18;;;;;;;3.38;1.50;;;;;;;13.96;84.47;101239.59;12669448;23;96505;-81
2023/01/21 09:58:30;;;;;;;3.85;1.20;;;;;;;14.09;83.92;101247.06;12669765;23;96574;-81
2023/01/21 10:03:41;;;;;;;1.55;1.10;;;;;;;14.15;83.63;101249.47;12668866;23;96844;-81
2023/01/21 10:09:21;;;;;;;3.97;1.65;;;;;;;14.13;83.53;101250.44;12669117;23;96790;-80
2023/01/21 10:14:51;;;;;;;2.53;1.50;;;;;;;14.29;83.36;101255.13;12660831;23;96656;-81
2023/01/21 10:20:05;;;;;;;2.55;1.60;;;;;;;14.59;82.37;101258.34;12668648;23;96556;-81
2023/01/21 10:25:18;;;;;;;2.55;1.60;;;;;;;14.90;81.30;101258.81;12670010;23;96742;-81
2023/01/21 10:30:26;;;;;;;6.07;3.97;;;;;;;15.06;80.06;101259.88;12669190;22;96921;-81
2023/01/21 10:35:43;;;;;;;3.28;1.90;;;;;;;15.17;80.23;101257.66;12669530;23;96622;-81
2023/01/21 10:40:54;;;;;;;2.25;1.67;;;;;;;15.08;80.57;101257.19;12670190;23;96669;-81
2023/01/21 10:46:10;;;;;;;2.17;1.50;;;;;;;15.00;79.48;101248.69;12669575;23;96707;-81
2023/01/21 10:51:19;;;;;;;2.50;1.55;;;;;;;14.73;78.62;101243.59;12669302;23;96565;-81
2023/01/21 10:56:39;;;;;;;3.42;1.63;;;;;;;14.86;79.67;101233.34;12668040;23;96628;-81
2023/01/21 11:01:47;;;;;;;3.15;1.88;;;;;;;14.96;80.62;101237.34;12668976;23;96505;-81
2023/01/21 11:06:57;;;;;;;3.28;2.17;;;;;;;14.98;80.17;101230.19;12669216;23;96669;-81
2023/01/21 11:12:01;;;;;;;1.90;1.33;;;;;;;15.04;79.26;101234.38;12668693;23;97465;-81
2023/01/21 11:17:06;;;;;;;2.03;1.40;;;;;;;15.06;78.05;101227.22;12669223;23;97462;-81
2023/01/21 11:22:22;;;;;;;3.78;1.88;;;;;;;15.07;77.31;101221.84;12669488;23;96700;-81
2023/01/21 11:27:33;;;;;;;2.28;1.55;;;;;;;15.27;77.34;101228.97;12668933;23;97135;-81
2023/01/21 11:32:38;;;;;;;2.75;2.17;;;;;;;15.51;77.30;101215.50;12669808;23;97029;-81
2023/01/21 11:37:45;;;;;;;3.33;1.75;;;;;;;15.84;75.75;101216.63;12668786;23;97397;-81
2023/01/21 11:42:50;;;;;;;2.10;1.60;;;;;;;15.87;75.52;101203.22;12668499;23;96991;-81
2023/01/21 11:47:56;;;;;;;2.90;1.70;;;;;;;15.89;75.20;101206.66;12667082;23;97143;-81
2023/01/21 11:53:13;;;;;;;3.60;2.20;;;;;;;15.96;74.31;101190.47;12668044;23;96644;-81
2023/01/21 11:58:20;;;;;;;3.15;2.30;;;;;;;16.05;74.24;101187.38;12667612;23;96615;-81
2023/01/21 12:03:30;;;;;;;2.05;1.58;;;;;;;16.00;74.35;101176.97;12668252;23;96603;-81
2023/01/21 12:08:37;;;;;;;2.33;1.70;;;;;;;16.08;74.48;101171.31;12667578;23;96581;-80
2023/01/21 12:13:48;;;;;;;2.20;1.77;;;;;;;16.21;73.89;101159.16;12668909;23;96723;-81
2023/01/21 12:19:38;;;;;;;2.67;1.60;;;;;;;16.17;73.01;101142.50;12670845;23;96622;-82
2023/01/21 12:24:56;;;;;;;2.55;1.70;;;;;;;16.17;71.95;101141.66;12603165;23;96727;-81
2023/01/21 12:30:14;;;;;;;2.17;1.50;;;;;;;16.35;72.22;101128.34;12670891;23;96690;-81
2023/01/21 12:35:26;;;;;;;1.85;1.42;;;;;;;16.42;70.08;101120.94;12670572;23;97000;-81
2023/01/21 12:40:34;;;;;;;1.95;1.50;;;;;;;16.61;70.70;101111.13;12669592;23;96624;-82
2023/01/21 12:45:43;;;;;;;2.90;1.77;;;;;;;16.70;70.00;101100.03;12670752;23;97278;-81
2023/01/21 12:50:53;;;;;;;2.40;1.60;;;;;;;16.81;68.19;101092.34;12670373;23;96626;-81
2023/01/21 12:56:08;;;;;;;1.67;1.20;;;;;;;17.03;65.05;101092.97;12670385;23;96887;-81
2023/01/21 13:01:15;;;;;;;2.88;2.20;;;;;;;17.03;67.50;101087.66;12671121;23;96719;-81
2023/01/21 13:06:25;;;;;;;3.20;2.20;;;;;;;17.23;67.42;101074.13;12670237;23;96559;-81
2023/01/21 13:11:56;;;;;;;3.47;2.25;;;;;;;17.15;67.38;101072.81;12669378;23;96741;-81
2023/01/21 13:17:03;;;;;;;2.75;2.20;;;;;;;17.24;67.00;101070.56;12671019;23;96662;-81
2023/01/21 13:22:16;;;;;;;3.00;2.10;;;;;;;17.35;65.48;101062.81;12670278;23;96651;-81
2023/01/21 13:27:25;;;;;;;2.80;1.80;;;;;;;17.41;63.99;101058.97;12670328;23;96636;-81
2023/01/21 13:32:37;;;;;;;2.92;2.20;;;;;;;17.54;64.38;101052.06;12668429;23;96824;-81
2023/01/21 13:37:47;;;;;;;2.92;2.05;;;;;;;17.46;63.58;101054.25;12670253;23;96751;-81
2023/01/21 13:43:02;;;;;;;3.75;2.40;;;;;;;18.17;58.08;101053.75;12669731;23;96711;-81
2023/01/21 13:48:44;;;;;;;2.80;1.95;;;;;;;19.80;56.71;101054.31;12669804;23;96641;-81
2023/01/21 13:54:16;;;;;;;2.40;1.73;;;;;;;21.37;53.48;101039.00;12665036;23;97264;-78
2023/01/21 13:59:31;;;;;;;3.10;2.40;;;;;;;22.59;50.55;101038.69;12666352;23;97229;-79
2023/01/21 14:04:43;;;;;;;2.92;2.10;;;;;;;23.50;49.40;101031.50;12667217;23;96614;-78
2023/01/21 14:09:50;;;;;;;3.45;2.17;;;;;;;23.86;47.03;101039.28;12666081;23;97181;-79
2023/01/21 14:15:14;;;;;;;3.45;2.72;;;;;;;23.63;46.02;101033.09;12668427;23;97051;-80
2023/01/21 14:20:53;;;;;;;2.95;2.00;;;;;;;22.42;46.64;101023.06;12666733;23;97105;-79
2023/01/21 14:26:11;;;;;;;2.85;2.10;;;;;;;22.36;48.21;101031.59;12665675;23;96899;-80
2023/01/21 14:31:22;;;;;;;3.03;2.00;;;;;;;23.44;44.64;101043.59;12666363;23;97538;-82
2023/01/21 14:36:42;;;;;;;2.22;1.63;;;;;;;22.61;45.84;101030.53;12666374;23;97187;-82
2023/01/21 14:41:55;;;;;;;3.35;1.83;;;;;;;22.67;45.34;101031.91;12668285;23;96927;-82
2023/01/21 14:47:23;;;;;;;3.37;1.93;;;;;;;21.52;46.73;101028.03;12667786;23;96639;-83
2023/01/21 14:52:33;;;;;;;3.67;2.53;;;;;;;20.34;52.03;101029.31;12668439;23;96564;-84
2023/01/21 14:57:43;;;;;;;3.37;2.40;;;;;;;19.50;54.00;101026.91;12667172;23;97066;-80
2023/01/21 15:02:52;;;;;;;5.93;2.60;;;;;;;20.23;51.55;101013.97;12665906;23;97030;-82
2023/01/21 15:08:06;;;;;;;3.53;2.20;;;;;;;19.13;51.53;101025.66;12667621;23;97055;-83
2023/01/21 15:13:27;;;;;;;3.30;1.80;;;;;;;18.76;53.68;101018.22;12665355;23;96761;-81
2023/01/21 15:18:38;;;;;;;3.03;1.27;;;;;;;18.32;54.02;101018.19;12664813;23;97268;-84
2023/01/21 15:23:42;;;;;;;1.83;1.40;;;;;;;19.62;51.91;101018.09;12665228;23;97125;-86
2023/01/21 15:28:48;;;;;;;2.83;1.88;;;;;;;21.23;48.87;101020.38;12664986;23;97132;-84
2023/01/21 15:33:58;;;;;;;2.30;1.67;;;;;;;21.42;48.83;101018.09;12666938;23;96679;-82
2023/01/21 15:39:12;;;;;;;1.77;1.40;;;;;;;21.88;45.71;101013.78;12666380;23;96642;-81
2023/01/21 15:44:32;;;;;;;2.88;1.70;;;;;;;21.06;48.41;101012.66;12666141;23;96618;-81
2023/01/21 15:49:52;;;;;;;3.38;2.30;;;;;;;20.52;49.11;101022.72;12667932;23;97007;-83
2023/01/21 15:55:08;;;;;;;2.75;2.00;;;;;;;20.02;50.03;101030.56;12669823;23;96609;-81
2023/01/21 16:00:26;;;;;;;3.92;2.67;;;;;;;19.18;50.68;101042.25;12668472;23;97226;-80
2023/01/21 16:05:41;;;;;;;4.72;2.80;;;;;;;18.66;52.78;101047.25;12668377;23;96842;-83
2023/01/21 16:10:57;;;;;;;5.15;3.72;;;;;;;18.27;53.79;101046.06;12668704;23;96853;-85
2023/01/21 16:16:10;;;;;;;5.97;3.92;;;;;;;18.01;54.80;101050.25;12668214;23;97509;-80
2023/01/21 16:21:19;;;;;;;6.90;4.25;;;;;;;17.85;55.51;101049.38;12669126;23;96894;-79
2023/01/21 16:26:27;;;;;;;5.40;3.15;;;;;;;17.60;56.22;101046.41;12669134;23;97093;-80
2023/01/21 16:31:30;;;;;;;4.07;2.10;;;;;;;17.85;54.11;101046.72;12668020;23;96759;-79
2023/01/21 16:36:39;;;;;;;4.85;2.50;;;;;;;17.94;53.84;101057.72;12669135;23;96658;-78
2023/01/21 16:41:43;;;;;;;4.00;2.38;;;;;;;17.63;55.46;101052.41;12669193;23;96685;-80
2023/01/21 16:46:46;;;;;;;3.90;2.03;;;;;;;17.25;55.45;101050.09;12669491;23;96900;-78
2023/01/21 16:51:55;;;;;;;3.60;2.67;;;;;;;16.95;56.52;101057.91;12667805;23;96812;-79
2023/01/21 16:57:00;;;;;;;3.13;2.38;;;;;;;16.86;57.59;101053.94;12668958;23;96796;-79
2023/01/21 17:02:04;;;;;;;3.45;2.60;;;;;;;16.63;59.40;101062.28;12667539;23;96617;-79
2023/01/21 17:07:14;;;;;;;5.05;3.17;;;;;;;16.31;61.18;101060.34;12669756;23;96715;-81
2023/01/21 17:12:23;;;;;;;4.78;3.50;;;;;;;16.18;61.15;101074.31;12667370;23;96520;-79
2023/01/21 17:17:30;;;;;;;4.60;2.92;;;;;;;15.90;62.83;101080.13;12668331;23;96834;-79
2023/01/21 17:22:39;;;;;;;4.03;2.80;;;;;;;15.63;64.19;101087.59;12667745;23;97413;-80
2023/01/21 17:27:44;;;;;;;4.07;2.85;;;;;;;15.41;65.15;101088.66;12669654;23;96733;-80
2023/01/21 17:32:53;;;;;;;4.78;3.03;;;;;;;15.28;65.89;101087.53;12669142;22;96840;-80
2023/01/21 17:38:01;;;;;;;6.82;3.42;;;;;;;15.02;66.90;101087.78;12669411;23;96676;-78
2023/01/21 17:43:18;;;;;;;5.90;3.47;;;;;;;14.87;67.42;101101.72;12668151;23;96837;-80
2023/01/21 17:48:26;;;;;;;5.78;3.38;;;;;;;14.76;68.02;101097.75;12668640;23;96728;-92
2023/01/21 17:53:30;;;;;;;7.53;3.42;;;;;;;14.54;68.57;101107.53;12665690;23;96942;-88
2023/01/21 17:58:43;;;;;;;6.55;3.75;;;;;;;14.43;68.87;101125.69;12668569;23;97166;-87
2023/01/21 18:03:47;;;;;;;5.95;4.13;;;;;;;14.42;68.69;101123.09;12667049;23;97441;-86
2023/01/21 18:08:52;;;;;;;5.63;4.28;;;;;;;14.36;69.10;101133.94;12667053;23;96746;-85
2023/01/21 18:13:56;;;;;;;7.13;4.90;;;;;;;14.25;70.09;101138.78;12667443;23;96764;-89
2023/01/21 18:19:01;;;;;;;11.68;8.45;;;;;;;14.17;69.89;101143.53;12668458;23;96662;-88
2023/01/21 18:37:36;;;;;;;8.65;6.30;;;;;;;14.03;70.53;101152.03;11930855;24;97628;-88
2023/01/21 19:34:25;;;;;;;14.77;11.77;;;;;;;13.26;72.59;101202.50;12124423;23;96927;-86
2023/01/21 20:10:27;;;;;;;13.45;11.15;;;;;;;12.80;74.37;101251.69;12086200;23;97221;-88
2023/01/21 20:21:56;;;;;;;15.60;10.93;;;;;;;12.69;74.19;101267.06;12022299;23;97084;-88
2023/01/21 20:27:43;;;;;;;17.95;12.20;;;;;;;12.68;74.82;101266.19;12017896;23;96903;-91
2023/01/21 20:32:56;;;;;;;15.23;11.75;;;;;;;12.63;74.72;101273.34;12064076;24;96877;-90
2023/01/21 20:38:21;;;;;;;14.40;10.85;;;;;;;12.26;75.91;101276.25;12076276;24;98141;-89
2023/01/21 20:43:27;;;;;;;14.82;10.77;;;;;;;12.44;75.51;101282.75;12096118;24;97016;-89
2023/01/21 20:48:52;;;;;;;15.52;11.60;;;;;;;12.29;76.47;101285.84;12135891;24;96885;-89
2023/01/21 20:54:01;;;;;;;14.05;11.63;;;;;;;12.29;75.81;101283.19;12131694;24;96974;-88
2023/01/21 20:59:05;;;;;;;13.20;9.90;;;;;;;12.40;75.55;101297.81;12131301;23;96873;-89
2023/01/21 21:04:23;;;;;;;14.30;9.35;;;;;;;12.26;75.92;101293.84;12133395;24;97003;-88
2023/01/21 21:09:34;;;;;;;12.73;9.52;;;;;;;12.15;76.28;101295.97;12132567;24;97194;-90
2023/01/21 21:14:48;;;;;;;14.05;9.93;;;;;;;12.02;76.97;101305.13;12129974;24;96815;-86
2023/01/21 21:19:58;;;;;;;12.88;10.45;;;;;;;12.12;76.09;101309.22;12131332;24;96916;-89
2023/01/21 21:25:08;;;;;;;12.05;9.82;;;;;;;12.14;75.89;101323.25;12131621;24;96869;-85
2023/01/21 21:30:34;;;;;;;14.90;10.25;;;;;;;12.15;76.02;101319.72;12117690;24;96837;-85
2023/01/21 21:36:09;;;;;;;13.63;9.80;;;;;;;12.11;76.62;101323.34;12075582;24;96857;-90
2023/01/21 21:53:37;;;;;;;13.45;9.75;;;;;;;11.66;77.66;101341.31;12014586;24;97188;-89
2023/01/21 22:22:53;;;;;;;12.77;8.70;;;;;;;11.45;77.86;101346.28;11853932;24;97129;-91
2023/01/21 22:27:58;;;;;;;11.63;8.75;;;;;;;11.29;78.68;101358.97;12075740;24;97457;-90
2023/01/21 22:33:25;;;;;;;11.45;6.80;;;;;;;11.17;78.84;101362.78;12072082;24;97524;-86
2023/01/21 22:38:43;;;;;;;10.32;6.97;;;;;;;11.22;77.94;101360.03;12072663;24;96714;-88
2023/01/21 22:44:03;;;;;;;9.07;5.00;;;;;;;11.29;77.48;101367.75;12071543;24;97046;-88
2023/01/21 22:49:18;;;;;;;9.02;4.97;;;;;;;11.28;77.30;101360.75;12072202;24;96843;-88
2023/01/21 22:54:43;;;;;;;8.02;5.60;;;;;;;11.15;78.68;101368.97;12072538;24;97114;-88
2023/01/21 23:05:58;;;;;;;8.20;6.15;;;;;;;10.93;79.48;101380.91;11712797;24;97067;-92
2023/01/21 23:11:23;;;;;;;10.85;7.13;;;;;;;10.89;79.70;101384.50;11841788;24;97331;-92
2023/01/21 23:16:33;;;;;;;7.90;5.10;;;;;;;11.01;79.12;101378.94;12024009;24;96965;-90
2023/01/21 23:21:43;;;;;;;10.48;7.10;;;;;;;10.97;78.24;101385.19;12119293;23;97261;-90
2023/01/21 23:26:56;;;;;;;9.77;7.13;;;;;;;10.90;78.90;101389.75;12213350;23;96621;-91
2023/01/21 23:32:06;;;;;;;8.93;6.68;;;;;;;10.70;79.33;101391.06;12223198;23;96986;-86
2023/01/21 23:37:15;;;;;;;8.70;6.22;;;;;;;10.79;78.30;101394.38;12238770;23;96824;-85
2023/01/21 23:42:22;;;;;;;8.88;6.30;;;;;;;10.64;79.22;101401.75;12344449;23;96761;-85
2023/01/21 23:47:30;;;;;;;9.25;5.07;;;;;;;10.78;79.26;101402.31;12419357;23;96688;-89
2023/01/21 23:52:40;;;;;;;7.85;5.20;;;;;;;10.69;79.25;101398.13;12419110;23;97438;-87
2023/01/21 23:57:53;;;;;;;9.23;5.80;;;;;;;10.59;79.47;101399.22;12419544;23;96796;-86
